Time;durP1;ratioP1;P1;durP2;ratioP2;P2;SDS_P1;SDS_P2;PMS_P1;PMS_P2;Temp;Humidity;BMP_temperature;BMP_pressure;BME280_temperature;BME280_humidity;BME280_pressure;Samples;Min_cycle;Max_cycle;Signal;HPM_P1;HPM_P2
2021/12/28 00:01:06;;;;;;;35.40;7.30;;;9.90;99.90;;;;;;5069318;28;20977;-47
2021/12/28 00:03:34;;;;;;;19.83;3.83;;;10.00;99.90;;;;;;5069075;28;20885;-47
2021/12/28 00:06:01;;;;;;;37.07;7.50;;;10.00;99.90;;;;;;5067515;28;21010;-47
2021/12/28 00:08:28;;;;;;;17.33;5.90;;;10.00;99.90;;;;;;5067171;28;20855;-47
2021/12/28 00:10:56;;;;;;;33.87;7.30;;;10.00;99.90;;;;;;5057500;28;20473;-48
2021/12/28 00:13:23;;;;;;;18.60;4.67;;;10.00;99.90;;;;;;5099442;27;20602;-47
2021/12/28 00:16:02;;;;;;;14.93;5.67;;;10.00;99.90;;;;;;5065487;28;20841;-46
2021/12/28 00:18:29;;;;;;;15.17;4.93;;;10.10;99.90;;;;;;5057269;28;20499;-47
2021/12/28 00:20:59;;;;;;;17.90;4.33;;;10.20;99.90;;;;;;5068181;28;20903;-47
2021/12/28 00:23:30;;;;;;;24.47;6.10;;;10.20;99.90;;;;;;5061651;27;20474;-48
2021/12/28 00:25:58;;;;;;;22.73;4.83;;;10.20;99.90;;;;;;5059749;27;20467;-47
2021/12/28 00:28:26;;;;;;;21.80;5.03;;;10.20;99.90;;;;;;5077620;28;20510;-47
2021/12/28 00:30:54;;;;;;;22.27;7.33;;;10.20;99.90;;;;;;5065669;28;20545;-47
2021/12/28 00:33:22;;;;;;;13.27;3.93;;;10.30;99.90;;;;;;5081904;27;20977;-46
2021/12/28 00:35:49;;;;;;;23.83;7.27;;;10.30;99.90;;;;;;5079966;27;20517;-47
2021/12/28 00:38:19;;;;;;;23.77;5.20;;;10.10;99.90;;;;;;5067097;28;21467;-46
2021/12/28 00:40:46;;;;;;;16.13;5.10;;;10.10;99.90;;;;;;5063466;28;20489;-47
2021/12/28 00:43:13;;;;;;;9.57;3.40;;;10.20;99.90;;;;;;5061582;28;20480;-47
2021/12/28 00:45:40;;;;;;;12.60;4.37;;;10.20;99.90;;;;;;5081952;28;20485;-47
2021/12/28 00:48:08;;;;;;;14.20;3.70;;;10.20;99.90;;;;;;5069185;27;21076;-47
2021/12/28 00:50:35;;;;;;;14.50;4.10;;;10.20;99.90;;;;;;5097662;28;21073;-50
2021/12/28 00:53:02;;;;;;;30.80;7.37;;;10.20;99.90;;;;;;5077588;28;21008;-47
2021/12/28 00:55:29;;;;;;;12.60;4.57;;;10.10;99.90;;;;;;5072867;28;20484;-48
2021/12/28 00:57:56;;;;;;;11.07;4.17;;;10.10;99.90;;;;;;5076260;28;21226;-47
2021/12/28 01:00:26;;;;;;;18.23;6.20;;;10.10;99.90;;;;;;5069400;28;20552;-47
2021/12/28 01:02:53;;;;;;;24.20;4.50;;;10.10;99.90;;;;;;5071318;28;20528;-46
2021/12/28 01:05:22;;;;;;;24.73;4.57;;;10.10;99.90;;;;;;5094442;28;21079;-47
2021/12/28 01:07:49;;;;;;;21.50;4.17;;;10.10;99.90;;;;;;5083973;28;20499;-47
2021/12/28 01:10:27;;;;;;;9.77;2.57;;;10.20;99.90;;;;;;5080488;28;20486;-48
2021/12/28 01:12:55;;;;;;;15.33;5.13;;;10.20;99.90;;;;;;5081651;28;20930;-48
2021/12/28 01:15:23;;;;;;;16.20;4.23;;;10.20;99.90;;;;;;5077358;28;20482;-47
2021/12/28 01:17:50;;;;;;;11.60;2.83;;;10.10;99.90;;;;;;5075169;28;20491;-48
2021/12/28 01:20:17;;;;;;;17.73;4.80;;;10.20;99.90;;;;;;5077170;28;20565;-48
2021/12/28 01:22:47;;;;;;;17.80;4.10;;;10.20;99.90;;;;;;5083310;28;20481;-48
2021/12/28 01:25:16;;;;;;;11.07;4.03;;;10.20;99.90;;;;;;5078405;28;20475;-48
2021/12/28 01:27:42;;;;;;;10.03;3.33;;;10.30;99.90;;;;;;5077354;28;20472;-47
2021/12/28 01:30:11;;;;;;;13.57;3.53;;;10.30;99.90;;;;;;5082687;28;20476;-48
2021/12/28 01:32:38;;;;;;;13.47;3.20;;;10.30;99.90;;;;;;5070691;28;20476;-48
2021/12/28 01:35:08;;;;;;;13.57;3.70;;;10.30;99.90;;;;;;5092005;28;20481;-48
2021/12/28 01:37:35;;;;;;;11.87;3.87;;;10.30;99.90;;;;;;5085430;28;20483;-48
2021/12/28 01:40:05;;;;;;;14.33;4.60;;;10.40;99.90;;;;;;5082917;28;21269;-47
2021/12/28 01:42:32;;;;;;;7.40;4.30;;;10.30;99.90;;;;;;5069345;28;20826;-48
2021/12/28 01:44:59;;;;;;;19.80;3.70;;;10.40;99.90;;;;;;5095001;27;20540;-48
2021/12/28 01:47:27;;;;;;;9.37;3.47;;;10.30;99.90;;;;;;5093724;27;20494;-47
2021/12/28 01:49:54;;;;;;;21.33;3.90;;;10.30;99.90;;;;;;5081294;28;21031;-51
2021/12/28 01:52:21;;;;;;;17.93;4.00;;;10.40;99.90;;;;;;5080426;28;20498;-47
2021/12/28 01:54:48;;;;;;;21.33;4.20;;;10.40;99.90;;;;;;5080852;28;20472;-48
2021/12/28 01:57:20;;;;;;;11.00;3.20;;;10.40;99.90;;;;;;5083909;28;20865;-47
2021/12/28 01:59:46;;;;;;;12.70;2.47;;;10.40;99.90;;;;;;5081148;28;20510;-47
2021/12/28 02:02:13;;;;;;;13.23;3.23;;;10.40;99.90;;;;;;5082301;27;20478;-47
2021/12/28 02:04:40;;;;;;;11.37;3.80;;;10.40;99.90;;;;;;5092730;27;20483;-47
2021/12/28 02:07:06;;;;;;;12.93;4.23;;;10.50;99.90;;;;;;5080136;28;20480;-47
2021/12/28 02:09:33;;;;;;;13.30;2.53;;;10.40;99.90;;;;;;5080017;28;20860;-47
2021/12/28 02:12:00;;;;;;;9.13;2.57;;;10.50;99.90;;;;;;5074065;28;20495;-47
2021/12/28 02:14:28;;;;;;;11.60;3.37;;;10.50;99.90;;;;;;5079268;28;20484;-47
2021/12/28 02:16:54;;;;;;;16.27;3.23;;;10.40;99.90;;;;;;5080968;28;20542;-48
2021/12/28 02:19:21;;;;;;;9.93;2.93;;;10.50;99.90;;;;;;5076458;28;20495;-47
2021/12/28 02:21:49;;;;;;;12.40;3.70;;;10.50;99.90;;;;;;5084839;27;20742;-47
2021/12/28 02:24:16;;;;;;;11.60;3.23;;;10.50;99.90;;;;;;5071374;27;20669;-48
2021/12/28 02:26:43;;;;;;;11.80;2.93;;;10.50;99.90;;;;;;5104431;27;20546;-48
2021/12/28 02:29:10;;;;;;;16.53;2.90;;;10.50;99.90;;;;;;5080040;28;20549;-48
2021/12/28 02:31:37;;;;;;;11.13;3.57;;;10.50;99.90;;;;;;5082089;28;20489;-47
2021/12/28 02:34:04;;;;;;;9.20;3.17;;;10.40;99.90;;;;;;5082125;28;20574;-47
2021/12/28 02:36:31;;;;;;;15.93;3.10;;;10.40;99.90;;;;;;5082891;27;20846;-47
2021/12/28 02:39:00;;;;;;;13.73;4.27;;;10.40;99.90;;;;;;5075960;28;20909;-47
2021/12/28 02:41:26;;;;;;;13.00;3.50;;;10.30;99.90;;;;;;5084751;28;21260;-47
2021/12/28 02:44:00;;;;;;;11.63;3.60;;;10.20;99.90;;;;;;5074277;28;20491;-47
2021/12/28 02:46:27;;;;;;;11.90;3.67;;;10.20;99.90;;;;;;5079745;28;20500;-47
2021/12/28 02:48:54;;;;;;;20.87;3.33;;;10.10;99.90;;;;;;5081380;28;20995;-48
2021/12/28 02:51:20;;;;;;;9.53;3.20;;;10.10;99.90;;;;;;5068961;28;20893;-48
2021/12/28 02:53:47;;;;;;;21.30;3.93;;;10.10;99.90;;;;;;5086065;28;20509;-47
2021/12/28 02:56:17;;;;;;;7.67;3.23;;;10.10;99.90;;;;;;5078459;28;20478;-47
2021/12/28 02:58:46;;;;;;;12.17;2.23;;;10.10;99.90;;;;;;5074988;28;20560;-48
2021/12/28 03:01:15;;;;;;;9.50;4.10;;;10.10;99.90;;;;;;5060434;28;20901;-47
2021/12/28 03:03:44;;;;;;;15.47;3.97;;;10.00;99.90;;;;;;5091670;28;20489;-47
2021/12/28 03:06:13;;;;;;;16.30;4.77;;;10.00;99.90;;;;;;5077782;28;20480;-47
2021/12/28 03:08:43;;;;;;;6.60;3.77;;;10.00;99.90;;;;;;5075810;28;20529;-47
2021/12/28 03:11:10;;;;;;;8.50;4.20;;;10.00;99.90;;;;;;5077898;28;20575;-46
2021/12/28 03:13:40;;;;;;;15.73;4.60;;;9.90;99.90;;;;;;5078712;28;20967;-47
2021/12/28 03:16:08;;;;;;;11.50;3.80;;;9.90;99.90;;;;;;5077667;28;20553;-48
2021/12/28 03:18:35;;;;;;;17.43;4.80;;;9.90;99.90;;;;;;5079070;28;20507;-46
2021/12/28 03:21:03;;;;;;;16.50;3.20;;;9.90;99.90;;;;;;5078841;28;20534;-46
2021/12/28 03:23:30;;;;;;;22.77;5.23;;;9.90;99.90;;;;;;5075617;28;20477;-46
2021/12/28 03:25:57;;;;;;;15.20;4.60;;;9.80;99.90;;;;;;5083256;28;21005;-48
2021/12/28 03:28:29;;;;;;;7.37;3.80;;;9.80;99.90;;;;;;5081978;28;20463;-46
2021/12/28 03:31:00;;;;;;;10.37;5.40;;;9.80;99.90;;;;;;5065733;28;20544;-47
2021/12/28 03:33:31;;;;;;;13.00;4.30;;;9.70;99.90;;;;;;5079046;28;20484;-46
2021/12/28 03:35:59;;;;;;;15.80;4.30;;;9.70;99.90;;;;;;5072520;28;20485;-46
2021/12/28 03:38:26;;;;;;;9.07;3.83;;;9.70;99.90;;;;;;5079697;28;20483;-47
2021/12/28 03:40:54;;;;;;;9.57;3.43;;;9.70;99.90;;;;;;5080726;28;20477;-46
2021/12/28 03:43:21;;;;;;;9.67;3.90;;;9.70;99.90;;;;;;5076482;28;20538;-46
2021/12/28 03:45:48;;;;;;;12.20;4.10;;;9.70;99.90;;;;;;5076568;28;20484;-45
2021/12/28 03:48:17;;;;;;;11.63;4.43;;;9.70;99.90;;;;;;5071593;28;20491;-46
2021/12/28 03:50:44;;;;;;;8.20;3.50;;;9.70;99.90;;;;;;5077950;28;20520;-46
2021/12/28 03:53:11;;;;;;;4.77;2.50;;;9.70;99.90;;;;;;5091868;27;21040;-46
2021/12/28 03:55:38;;;;;;;4.23;1.67;;;9.70;99.90;;;;;;5087956;27;20535;-46
2021/12/28 03:58:05;;;;;;;4.57;1.80;;;9.70;99.90;;;;;;5079134;28;20485;-46
2021/12/28 04:00:35;;;;;;;3.60;1.20;;;9.80;99.90;;;;;;5076401;28;20473;-46
2021/12/28 04:03:01;;;;;;;2.10;0.90;;;9.90;99.90;;;;;;5072857;28;20467;-47
2021/12/28 04:05:31;;;;;;;6.33;1.63;;;9.90;99.90;;;;;;5076702;28;20485;-45
2021/12/28 04:07:58;;;;;;;2.17;0.93;;;9.90;99.90;;;;;;5072936;28;20492;-47
2021/12/28 04:10:30;;;;;;;1.47;0.80;;;10.00;99.90;;;;;;5071514;28;20484;-46
2021/12/28 04:12:57;;;;;;;2.30;1.10;;;9.90;99.90;;;;;;5097873;27;21053;-46
2021/12/28 04:15:24;;;;;;;3.10;1.40;;;9.90;99.90;;;;;;5078395;27;20534;-46
2021/12/28 04:17:51;;;;;;;5.53;1.40;;;9.90;99.90;;;;;;5089001;28;20538;-46
2021/12/28 04:20:20;;;;;;;1.90;1.10;;;9.80;99.90;;;;;;5064314;28;20542;-46
2021/12/28 04:22:48;;;;;;;3.07;1.33;;;9.70;99.90;;;;;;5088159;28;20488;-46
2021/12/28 04:25:16;;;;;;;2.70;1.40;;;9.80;99.90;;;;;;5101954;27;20484;-46
2021/12/28 04:27:44;;;;;;;5.00;1.20;;;9.80;99.90;;;;;;5066282;28;21070;-46
2021/12/28 04:30:13;;;;;;;1.60;0.70;;;9.70;99.90;;;;;;5078576;28;20526;-46
2021/12/28 04:32:40;;;;;;;2.80;1.20;;;9.80;99.90;;;;;;5072709;28;21055;-46
2021/12/28 04:35:08;;;;;;;2.90;1.33;;;9.80;99.90;;;;;;5080415;28;20541;-46
2021/12/28 04:37:35;;;;;;;3.90;1.20;;;9.70;99.90;;;;;;5077543;28;20484;-47
2021/12/28 04:40:05;;;;;;;2.93;0.90;;;9.80;99.90;;;;;;5064392;28;20533;-46
2021/12/28 04:42:32;;;;;;;2.00;1.00;;;9.80;99.90;;;;;;5069963;28;20519;-47
2021/12/28 04:44:59;;;;;;;2.40;1.07;;;9.80;99.90;;;;;;5071938;28;20476;-46
2021/12/28 04:47:26;;;;;;;4.50;1.30;;;9.80;99.90;;;;;;5073266;28;20474;-46
2021/12/28 04:49:54;;;;;;;2.43;0.83;;;9.70;99.90;;;;;;5077519;28;20544;-46
2021/12/28 04:52:21;;;;;;;1.97;0.70;;;9.80;99.90;;;;;;5055945;28;20507;-46
2021/12/28 04:54:47;;;;;;;2.67;0.70;;;9.80;99.90;;;;;;5074649;28;20483;-46
2021/12/28 04:57:15;;;;;;;2.40;1.30;;;9.90;99.90;;;;;;5075764;28;20501;-46
2021/12/28 04:59:42;;;;;;;1.90;0.90;;;9.80;99.90;;;;;;5075006;28;21079;-46
2021/12/28 05:02:09;;;;;;;5.20;1.13;;;9.70;99.90;;;;;;5080650;28;20495;-46
2021/12/28 05:04:36;;;;;;;2.53;1.23;;;9.70;99.90;;;;;;5076273;28;20480;-46
2021/12/28 05:07:02;;;;;;;2.20;1.10;;;9.70;99.90;;;;;;5071231;28;20483;-46
2021/12/28 05:09:29;;;;;;;2.00;1.17;;;9.60;99.90;;;;;;5078328;28;20877;-46
2021/12/28 05:11:56;;;;;;;2.93;1.00;;;9.60;99.90;;;;;;5071846;28;20473;-46
2021/12/28 05:14:24;;;;;;;1.60;0.80;;;9.60;99.90;;;;;;5070493;28;20493;-46
2021/12/28 05:16:51;;;;;;;1.93;1.20;;;9.60;99.90;;;;;;5073807;28;20484;-45
2021/12/28 05:19:17;;;;;;;2.23;1.30;;;9.50;99.90;;;;;;5073220;28;20506;-45
2021/12/28 05:21:44;;;;;;;5.30;1.50;;;9.50;99.90;;;;;;5064784;28;20877;-45
2021/12/28 05:24:11;;;;;;;2.07;1.33;;;9.50;99.90;;;;;;5071395;28;20957;-47
2021/12/28 05:26:38;;;;;;;2.93;1.20;;;9.50;99.90;;;;;;5074911;28;20476;-46
2021/12/28 05:29:05;;;;;;;2.97;1.30;;;9.50;99.90;;;;;;5073068;28;21073;-45
2021/12/28 05:31:33;;;;;;;2.90;1.27;;;9.40;99.90;;;;;;5079825;28;20491;-46
2021/12/28 05:34:00;;;;;;;3.80;1.37;;;9.30;99.90;;;;;;5076495;28;20492;-46
2021/12/28 05:36:27;;;;;;;3.57;1.03;;;9.30;99.90;;;;;;5075985;28;20539;-46
2021/12/28 05:38:54;;;;;;;2.80;1.37;;;9.40;99.90;;;;;;5074289;28;20837;-46
2021/12/28 05:41:22;;;;;;;3.63;0.87;;;9.50;99.90;;;;;;5081270;28;20487;-46
2021/12/28 05:43:49;;;;;;;3.20;0.90;;;9.70;99.90;;;;;;5076010;28;20537;-46
2021/12/28 05:46:16;;;;;;;2.37;0.83;;;9.70;99.90;;;;;;5075287;28;20544;-47
2021/12/28 05:48:44;;;;;;;1.30;0.50;;;9.70;99.90;;;;;;5081217;28;20536;-47
2021/12/28 05:51:10;;;;;;;1.40;0.60;;;9.70;99.90;;;;;;5081851;28;20545;-46
2021/12/28 05:53:37;;;;;;;1.47;0.67;;;9.50;99.90;;;;;;5080735;28;20553;-45
2021/12/28 05:56:05;;;;;;;1.67;0.80;;;9.60;99.90;;;;;;5079828;28;20544;-46
2021/12/28 05:58:32;;;;;;;3.20;0.90;;;9.60;99.90;;;;;;5078683;28;20783;-46
2021/12/28 06:00:58;;;;;;;1.77;0.60;;;9.50;99.90;;;;;;5085636;28;20551;-48
2021/12/28 06:03:25;;;;;;;1.70;0.70;;;9.70;99.90;;;;;;5080738;28;20516;-47
2021/12/28 06:05:54;;;;;;;1.57;0.63;;;9.70;99.90;;;;;;5078430;28;20491;-52
2021/12/28 06:08:21;;;;;;;1.30;0.50;;;9.90;99.90;;;;;;5076784;28;20496;-47
2021/12/28 06:10:47;;;;;;;2.20;0.87;;;10.00;99.90;;;;;;5077254;28;21168;-47
2021/12/28 06:13:14;;;;;;;1.40;0.60;;;10.00;99.90;;;;;;5080868;28;20589;-47
2021/12/28 06:15:41;;;;;;;1.73;0.70;;;10.00;99.90;;;;;;5079264;28;21067;-47
2021/12/28 06:18:08;;;;;;;1.67;0.60;;;10.10;99.90;;;;;;5065498;28;20479;-47
2021/12/28 06:20:35;;;;;;;1.90;0.70;;;10.00;99.90;;;;;;5095957;27;20495;-47
2021/12/28 06:23:03;;;;;;;2.77;0.93;;;10.20;99.90;;;;;;5086300;27;20484;-47
2021/12/28 06:25:30;;;;;;;1.80;0.80;;;10.10;99.90;;;;;;5088177;27;20552;-47
2021/12/28 06:27:57;;;;;;;1.60;0.80;;;10.10;99.90;;;;;;5095439;27;20548;-46
2021/12/28 06:30:24;;;;;;;2.33;1.13;;;9.90;99.90;;;;;;5080156;28;20488;-49
2021/12/28 06:32:50;;;;;;;2.23;0.70;;;10.00;99.90;;;;;;5078541;28;20477;-47
2021/12/28 06:35:17;;;;;;;1.50;0.80;;;10.00;99.90;;;;;;5073950;28;20487;-47
2021/12/28 06:37:44;;;;;;;2.33;0.87;;;10.00;99.90;;;;;;5090169;28;20570;-48
2021/12/28 06:40:13;;;;;;;1.30;0.50;;;10.00;99.90;;;;;;5079167;28;20485;-47
2021/12/28 06:42:40;;;;;;;1.70;0.97;;;10.00;99.90;;;;;;5072172;28;20481;-46
2021/12/28 06:45:08;;;;;;;2.53;0.70;;;10.00;99.90;;;;;;5079862;28;21043;-47
2021/12/28 06:47:35;;;;;;;3.33;0.87;;;9.90;99.90;;;;;;5082600;28;20535;-47
2021/12/28 06:50:02;;;;;;;1.30;0.50;;;10.00;99.90;;;;;;5072541;28;20517;-47
2021/12/28 06:52:29;;;;;;;1.33;0.60;;;10.00;99.90;;;;;;5076277;28;20547;-47
2021/12/28 06:54:55;;;;;;;2.23;0.80;;;10.10;99.90;;;;;;5076855;28;20962;-47
2021/12/28 06:57:23;;;;;;;1.40;0.60;;;10.10;99.90;;;;;;5077233;28;21055;-47
2021/12/28 06:59:50;;;;;;;1.40;0.70;;;10.10;99.90;;;;;;5074760;28;20503;-45
2021/12/28 07:02:18;;;;;;;1.90;0.63;;;10.10;99.90;;;;;;5080347;28;20485;-46
2021/12/28 07:04:45;;;;;;;1.70;0.70;;;10.10;99.90;;;;;;5076284;28;20970;-47
2021/12/28 07:07:12;;;;;;;1.40;0.70;;;10.10;99.90;;;;;;5076888;28;22046;-47
2021/12/28 07:09:40;;;;;;;1.40;0.60;;;10.20;99.90;;;;;;5079038;28;20477;-47
2021/12/28 07:12:07;;;;;;;3.87;0.90;;;10.20;99.90;;;;;;5076931;28;20473;-46
2021/12/28 07:14:36;;;;;;;1.83;1.13;;;10.20;99.90;;;;;;5072000;28;20867;-46
2021/12/28 07:17:03;;;;;;;1.73;0.93;;;10.20;99.90;;;;;;5080360;28;20538;-48
2021/12/28 07:19:30;;;;;;;5.03;0.87;;;10.30;99.90;;;;;;5078685;28;21104;-46
2021/12/28 07:21:57;;;;;;;2.00;0.90;;;10.40;99.90;;;;;;5077741;28;20488;-47
2021/12/28 07:24:23;;;;;;;1.73;0.60;;;10.40;99.90;;;;;;5078785;28;21018;-47
2021/12/28 07:26:50;;;;;;;1.70;0.90;;;10.50;99.90;;;;;;5080559;28;20512;-52
2021/12/28 07:29:17;;;;;;;1.50;0.70;;;10.50;99.90;;;;;;5081343;28;20490;-47
2021/12/28 07:31:45;;;;;;;1.40;0.60;;;10.60;99.90;;;;;;5097304;27;20541;-47
2021/12/28 07:34:11;;;;;;;1.50;0.80;;;10.60;99.90;;;;;;5065868;28;20545;-47
2021/12/28 07:36:38;;;;;;;1.80;0.70;;;10.60;99.90;;;;;;5075682;28;20550;-46
2021/12/28 07:39:06;;;;;;;3.13;1.00;;;10.60;99.90;;;;;;5071823;28;20517;-46
2021/12/28 07:41:33;;;;;;;2.03;1.10;;;10.70;99.90;;;;;;5068282;28;20480;-46
2021/12/28 07:44:00;;;;;;;1.40;0.70;;;10.70;99.90;;;;;;5079633;28;20484;-47
2021/12/28 07:46:27;;;;;;;1.40;0.60;;;10.70;99.90;;;;;;5078829;28;20497;-53
2021/12/28 07:48:55;;;;;;;1.60;1.00;;;10.80;99.90;;;;;;5079800;28;20989;-48
2021/12/28 07:51:22;;;;;;;2.20;0.93;;;10.80;99.90;;;;;;5065649;28;20481;-47
2021/12/28 07:53:49;;;;;;;1.50;0.80;;;10.90;99.90;;;;;;5063882;28;20542;-47
2021/12/28 07:56:16;;;;;;;1.50;0.80;;;10.90;99.90;;;;;;5075320;28;20926;-47
2021/12/28 07:58:43;;;;;;;1.40;0.70;;;11.00;99.90;;;;;;5065894;28;20509;-47
2021/12/28 08:01:09;;;;;;;1.50;0.83;;;11.00;99.90;;;;;;5075619;28;20489;-48
2021/12/28 08:03:36;;;;;;;2.63;1.50;;;11.00;99.90;;;;;;5077301;27;20488;-48
2021/12/28 08:06:04;;;;;;;1.47;0.70;;;11.00;99.90;;;;;;5088370;27;21305;-47
2021/12/28 08:08:31;;;;;;;1.83;1.30;;;11.10;99.90;;;;;;5058531;27;20467;-47
2021/12/28 08:10:58;;;;;;;1.60;1.33;;;11.10;99.90;;;;;;5081498;27;20489;-47
2021/12/28 08:13:25;;;;;;;1.57;1.03;;;11.00;99.90;;;;;;5058473;28;20483;-49
2021/12/28 08:15:51;;;;;;;1.50;1.00;;;11.10;99.90;;;;;;5064966;28;20541;-47
2021/12/28 08:18:19;;;;;;;1.80;1.40;;;11.20;99.90;;;;;;5064158;28;20473;-48
2021/12/28 08:20:45;;;;;;;2.10;1.90;;;11.10;99.90;;;;;;5070073;27;20508;-48
2021/12/28 08:23:14;;;;;;;1.77;1.37;;;11.10;99.90;;;;;;5075373;27;20485;-48
2021/12/28 08:25:41;;;;;;;1.77;1.17;;;11.10;99.90;;;;;;5087480;27;21028;-48
2021/12/28 08:28:08;;;;;;;2.00;1.23;;;11.20;99.90;;;;;;5078689;27;20481;-48
2021/12/28 08:30:36;;;;;;;1.80;1.07;;;11.30;99.90;;;;;;5073069;27;20475;-48
2021/12/28 08:33:04;;;;;;;1.60;0.73;;;11.30;99.90;;;;;;5086241;27;20477;-47
2021/12/28 08:35:31;;;;;;;1.30;0.70;;;11.30;99.90;;;;;;5068561;28;20475;-48
2021/12/28 08:37:58;;;;;;;2.43;1.03;;;11.30;99.90;;;;;;5062647;28;20774;-47
2021/12/28 08:40:26;;;;;;;1.50;0.87;;;11.30;99.90;;;;;;5065595;28;20547;-48
2021/12/28 08:42:53;;;;;;;1.60;0.80;;;11.40;99.90;;;;;;5068518;28;20476;-47
2021/12/28 08:45:20;;;;;;;1.50;0.90;;;11.40;99.90;;;;;;5067571;28;20856;-48
2021/12/28 08:47:47;;;;;;;2.63;0.90;;;11.40;99.90;;;;;;5061074;28;20484;-48
2021/12/28 08:50:14;;;;;;;1.40;0.70;;;11.40;99.90;;;;;;5056177;28;20483;-48
2021/12/28 08:52:41;;;;;;;1.40;0.70;;;11.50;99.90;;;;;;5085038;27;20487;-47
2021/12/28 08:55:09;;;;;;;1.50;0.70;;;11.50;99.90;;;;;;5066961;28;20480;-48
2021/12/28 08:57:37;;;;;;;1.60;1.00;;;11.60;99.90;;;;;;5064028;28;20552;-47
2021/12/28 09:00:07;;;;;;;1.67;0.80;;;11.60;99.90;;;;;;5058923;28;20766;-48
2021/12/28 09:02:34;;;;;;;1.80;0.90;;;11.70;99.90;;;;;;5082221;27;20589;-48
2021/12/28 09:05:01;;;;;;;3.50;1.17;;;11.70;99.90;;;;;;5097814;27;20550;-47
2021/12/28 09:07:28;;;;;;;2.67;0.70;;;11.80;99.90;;;;;;5063879;28;20585;-48
2021/12/28 09:09:55;;;;;;;1.80;0.90;;;11.70;99.90;;;;;;5066413;28;20529;-48
2021/12/28 09:12:21;;;;;;;1.60;1.07;;;11.70;99.90;;;;;;5067946;28;20879;-47
2021/12/28 09:14:49;;;;;;;1.53;0.90;;;11.70;99.90;;;;;;5065168;28;20580;-48
2021/12/28 09:17:16;;;;;;;2.03;0.90;;;11.80;99.90;;;;;;5063965;28;20482;-48
2021/12/28 09:19:43;;;;;;;1.60;1.00;;;11.80;99.90;;;;;;5061013;28;20489;-48
2021/12/28 09:22:11;;;;;;;1.70;1.13;;;11.80;99.90;;;;;;5064703;27;20630;-48
2021/12/28 09:24:38;;;;;;;2.53;1.03;;;11.80;99.90;;;;;;5062753;27;20481;-48
2021/12/28 09:27:05;;;;;;;2.27;0.90;;;11.80;99.90;;;;;;5055387;28;20930;-48
2021/12/28 09:29:32;;;;;;;3.20;1.00;;;11.80;99.90;;;;;;5061578;28;20485;-49
2021/12/28 09:32:01;;;;;;;3.30;1.07;;;11.90;99.90;;;;;;5094578;27;20472;-48
2021/12/28 09:34:28;;;;;;;7.83;1.00;;;11.90;99.90;;;;;;5057932;28;20534;-48
2021/12/28 09:36:56;;;;;;;7.10;1.10;;;11.90;99.90;;;;;;5069246;27;20465;-47
2021/12/28 09:39:26;;;;;;;1.63;1.10;;;11.90;99.90;;;;;;5063287;28;20478;-48
2021/12/28 09:41:54;;;;;;;2.23;1.10;;;11.90;99.90;;;;;;5063679;28;20539;-48
2021/12/28 09:44:21;;;;;;;2.50;1.20;;;11.90;99.90;;;;;;5059071;28;20481;-48
2021/12/28 09:46:48;;;;;;;1.90;0.83;;;11.90;99.90;;;;;;5065094;27;21420;-47
2021/12/28 09:49:16;;;;;;;1.50;1.00;;;11.90;99.90;;;;;;5074415;27;20869;-48
2021/12/28 09:51:43;;;;;;;1.40;0.63;;;11.90;99.90;;;;;;5057615;28;20546;-48
2021/12/28 09:54:09;;;;;;;1.63;0.97;;;11.90;99.90;;;;;;5058754;28;20875;-48
2021/12/28 09:56:37;;;;;;;4.03;1.13;;;11.90;99.90;;;;;;5057971;28;20535;-48
2021/12/28 09:59:04;;;;;;;2.07;0.77;;;11.90;99.90;;;;;;5065727;28;20630;-47
2021/12/28 10:01:31;;;;;;;2.37;0.80;;;12.00;99.90;;;;;;5069894;28;20481;-47
2021/12/28 10:03:59;;;;;;;2.00;0.90;;;12.00;99.90;;;;;;5065525;28;20486;-47
2021/12/28 10:06:29;;;;;;;1.60;0.70;;;12.00;99.90;;;;;;5057211;28;20492;-49
2021/12/28 10:09:08;;;;;;;2.07;0.90;;;12.00;99.90;;;;;;5077933;27;20555;-47
2021/12/28 10:11:35;;;;;;;1.30;0.60;;;12.00;99.90;;;;;;5059787;27;20512;-46
2021/12/28 10:14:14;;;;;;;2.50;1.00;;;12.00;99.90;;;;;;5059638;28;20513;-48
2021/12/28 10:16:48;;;;;;;2.00;1.03;;;12.00;99.90;;;;;;5084157;27;20547;-47
2021/12/28 10:19:36;;;;;;;1.80;0.80;;;12.00;99.90;;;;;;5057835;28;20890;-47
2021/12/28 10:22:31;;;;;;;1.40;0.60;;;12.00;99.90;;;;;;5062291;28;20962;-48
2021/12/28 10:25:01;;;;;;;1.40;0.63;;;12.10;99.90;;;;;;5047270;28;20489;-48
2021/12/28 10:27:30;;;;;;;4.90;0.97;;;12.10;99.90;;;;;;5072673;28;20509;-47
2021/12/28 10:30:05;;;;;;;2.37;0.70;;;12.10;99.90;;;;;;5060026;27;20486;-47
2021/12/28 10:32:32;;;;;;;1.60;0.90;;;12.20;99.90;;;;;;5074181;27;20897;-47
2021/12/28 10:35:03;;;;;;;4.40;1.30;;;12.20;99.90;;;;;;5058606;28;20478;-47
2021/12/28 10:37:34;;;;;;;1.50;0.60;;;12.30;99.90;;;;;;5047706;28;20469;-47
2021/12/28 10:40:01;;;;;;;1.87;0.90;;;12.40;99.90;;;;;;5050835;28;20537;-47
2021/12/28 10:42:43;;;;;;;3.40;1.00;;;12.40;99.90;;;;;;5071991;27;20468;-47
2021/12/28 10:45:13;;;;;;;1.57;1.10;;;12.40;99.90;;;;;;5061860;27;20541;-47
2021/12/28 10:47:40;;;;;;;1.97;0.77;;;12.40;99.90;;;;;;5073319;27;21426;-47
2021/12/28 10:50:34;;;;;;;2.27;0.70;;;12.40;99.90;;;;;;5065306;27;20559;-48
2021/12/28 10:53:10;;;;;;;1.50;0.80;;;12.40;99.90;;;;;;5061842;27;20476;-47
2021/12/28 10:55:37;;;;;;;1.50;0.73;;;12.30;99.90;;;;;;5069290;27;20548;-48
2021/12/28 10:58:05;;;;;;;1.60;0.90;;;12.30;99.90;;;;;;5060495;28;20498;-47
2021/12/28 11:00:36;;;;;;;2.10;0.90;;;12.30;99.90;;;;;;5068751;28;20544;-47
2021/12/28 11:03:28;;;;;;;6.60;0.73;;;12.30;99.90;;;;;;5060799;27;20491;-47
2021/12/28 11:05:57;;;;;;;2.40;0.90;;;12.20;99.90;;;;;;5070126;27;21334;-47
2021/12/28 11:08:28;;;;;;;2.70;1.17;;;12.20;99.90;;;;;;5066711;27;20488;-48
2021/12/28 11:10:58;;;;;;;2.60;1.20;;;12.30;99.90;;;;;;5083018;27;20487;-47
2021/12/28 11:13:30;;;;;;;7.30;1.23;;;12.30;99.90;;;;;;5067898;28;21062;-48
2021/12/28 11:15:59;;;;;;;1.77;0.80;;;12.30;99.90;;;;;;5054313;28;20550;-47
2021/12/28 11:18:30;;;;;;;2.83;1.20;;;12.30;99.90;;;;;;5061884;27;20834;-48
2021/12/28 11:20:59;;;;;;;1.50;0.70;;;12.20;99.90;;;;;;5080976;27;20490;-47
2021/12/28 11:23:29;;;;;;;3.43;0.70;;;12.20;99.90;;;;;;5052574;27;20488;-48
2021/12/28 11:26:19;;;;;;;2.03;1.10;;;12.20;99.90;;;;;;5054203;27;20467;-48
2021/12/28 11:28:54;;;;;;;3.50;1.23;;;12.10;99.90;;;;;;5062199;28;20543;-46
2021/12/28 11:31:23;;;;;;;1.83;1.10;;;12.10;99.90;;;;;;5052276;28;20810;-49
2021/12/28 11:34:00;;;;;;;2.80;0.70;;;12.20;99.90;;;;;;5066490;27;21204;-47
2021/12/28 11:36:29;;;;;;;7.80;1.77;;;12.20;99.90;;;;;;5067436;28;20487;-48
2021/12/28 11:38:59;;;;;;;3.00;0.80;;;12.20;99.90;;;;;;5058111;28;20842;-48
2021/12/28 11:41:27;;;;;;;2.63;0.70;;;12.20;99.90;;;;;;5066479;28;20554;-48
2021/12/28 11:43:56;;;;;;;3.40;0.90;;;12.20;99.90;;;;;;5069212;27;20480;-48
2021/12/28 11:46:23;;;;;;;7.53;2.33;;;12.20;99.90;;;;;;5052954;28;20838;-48
2021/12/28 11:48:50;;;;;;;2.50;0.70;;;12.30;99.90;;;;;;5060931;28;20700;-48
2021/12/28 11:51:17;;;;;;;1.50;0.70;;;12.30;99.90;;;;;;5056590;27;20495;-47
2021/12/28 11:53:47;;;;;;;3.40;1.27;;;12.20;99.90;;;;;;5090943;27;20485;-56
2021/12/28 11:56:18;;;;;;;3.80;1.33;;;12.20;99.90;;;;;;5057114;28;20469;-48
2021/12/28 11:58:54;;;;;;;3.90;1.40;;;12.10;99.90;;;;;;5067941;28;20487;-47
2021/12/28 12:01:39;;;;;;;4.07;1.47;;;12.10;99.90;;;;;;5052275;27;20532;-47
2021/12/28 12:04:43;;;;;;;8.43;1.80;;;12.00;99.90;;;;;;5075846;27;20908;-48
2021/12/28 12:07:12;;;;;;;3.53;1.40;;;12.00;99.90;;;;;;5043233;28;20548;-47
2021/12/28 12:10:18;;;;;;;3.50;1.17;;;12.00;99.90;;;;;;5056440;28;20572;-48
2021/12/28 12:12:54;;;;;;;2.57;1.17;;;12.00;99.90;;;;;;5079109;27;20708;-48
2021/12/28 12:15:23;;;;;;;4.27;1.10;;;12.00;99.90;;;;;;5058885;28;20477;-48
2021/12/28 12:17:56;;;;;;;5.30;1.00;;;12.00;99.90;;;;;;5064865;27;20561;-48
2021/12/28 12:20:30;;;;;;;3.60;1.07;;;12.00;99.90;;;;;;5063067;27;20495;-47
2021/12/28 12:23:08;;;;;;;5.63;1.70;;;12.00;99.90;;;;;;5068320;27;20481;-47
2021/12/28 12:25:50;;;;;;;5.90;1.40;;;12.00;99.90;;;;;;5084715;27;20470;-48
2021/12/28 12:28:24;;;;;;;1.70;0.70;;;12.00;99.90;;;;;;5056680;27;20818;-47
2021/12/28 12:30:52;;;;;;;6.50;2.40;;;11.90;99.90;;;;;;5064457;28;20481;-48
2021/12/28 12:33:19;;;;;;;4.70;1.93;;;11.90;99.90;;;;;;5065544;28;20989;-47
2021/12/28 12:35:55;;;;;;;3.70;1.90;;;11.90;99.90;;;;;;5065161;28;20944;-47
2021/12/28 12:38:49;;;;;;;20.33;2.80;;;11.80;99.90;;;;;;5060692;28;20489;-47
2021/12/28 12:41:20;;;;;;;8.77;2.60;;;11.80;99.90;;;;;;5056795;28;20959;-46
2021/12/28 12:43:52;;;;;;;5.93;1.77;;;11.70;99.90;;;;;;5065682;28;20946;-47
2021/12/28 12:46:23;;;;;;;6.70;1.70;;;11.70;99.90;;;;;;5064083;28;20514;-48
2021/12/28 12:48:58;;;;;;;4.30;2.47;;;11.70;99.90;;;;;;5050101;28;20502;-48
2021/12/28 12:51:31;;;;;;;6.57;1.80;;;11.60;99.90;;;;;;5064584;28;20483;-47
2021/12/28 12:54:12;;;;;;;6.23;1.30;;;11.70;99.90;;;;;;5081744;27;21047;-47